Carlton, Alabama
Current Conditions -  °F | °C
As of 10:53 AM on Saturday 25 Oct 2014 (Local Time) from KGZH Reporting Station
Clear Clear  
Wind Chill: 72°   Ceiling: Unl
Heat Index: 72°   Visibility: 10mi
Dew Point: 50°   Wind: 10mph
Humidity: 46%   Direction: 30°NNE
Pressure: 30.13"   Gusts: NA
Location:  31.34°N, 87.85°W
Report Text: KGZH 251553Z AUTO 03009KT 10SM CLR 22/10 A3013 RMK AO2 SLP200 T02220100
Loading
Personal Weather Stations






























Interactive Weather Map
Tropical Storm Tracking
New forecast layout! Learn more

10-Day Weather Forecast

Advertisements
Track Severe Weather on mobile